createdAt,value
2022-10-16T00:00:59.214Z,96215.41
2022-10-16T00:03:29.498Z,96217.44
2022-10-16T00:06:01.178Z,96205.03
2022-10-16T00:08:28.623Z,96220.19
2022-10-16T00:11:04.809Z,96224.47
2022-10-16T00:13:32.957Z,96076.09
2022-10-16T00:16:01.235Z,96225.31
2022-10-16T00:18:29.014Z,96239.56
2022-10-16T00:23:28.110Z,96232.63
2022-10-16T00:26:04.003Z,96237.03
2022-10-16T00:28:31.659Z,96247.31
2022-10-16T00:30:58.467Z,96207.19
2022-10-16T00:33:25.555Z,96237.31
2022-10-16T00:35:52.197Z,96201.03
2022-10-16T00:38:18.810Z,96211.38
2022-10-16T00:40:45.492Z,96200.63
2022-10-16T00:43:39.434Z,96207.59
2022-10-16T00:46:28.702Z,96216.78
2022-10-16T00:49:02.698Z,96208.31
2022-10-16T00:51:42.150Z,96220.22
2022-10-16T00:54:14.458Z,96208.47
2022-10-16T00:56:42.288Z,96209.84
2022-10-16T00:59:17.294Z,96224.09
2022-10-16T01:01:43.907Z,96213.63
2022-10-16T01:04:10.748Z,96187.09
2022-10-16T01:06:42.656Z,96198.56
2022-10-16T01:09:15.180Z,96222.75
2022-10-16T01:12:20.699Z,96234.25
2022-10-16T01:14:55.419Z,96219.69
2022-10-16T01:17:21.947Z,96178.28
2022-10-16T01:20:13.002Z,96193.53
2022-10-16T01:23:14.979Z,96220.81
2022-10-16T01:26:04.430Z,96231.44
2022-10-16T01:28:40.833Z,96224.84
2022-10-16T01:31:10.657Z,96181.47
2022-10-16T01:33:44.889Z,96201.59
2022-10-16T01:36:19.521Z,96219.19
2022-10-16T01:38:50.714Z,96220.66
2022-10-16T01:41:25.847Z,96212.28
2022-10-16T01:44:05.421Z,96192.31
2022-10-16T01:46:32.939Z,96221.59
2022-10-16T01:49:02.855Z,96189.84
2022-10-16T01:51:30.406Z,96185.91
2022-10-16T01:54:01.210Z,96220.91
2022-10-16T01:56:29.539Z,96230.00
2022-10-16T01:59:05.008Z,96231.53
2022-10-16T02:01:34.506Z,96237.53
2022-10-16T02:04:25.490Z,96231.00
2022-10-16T02:06:53.739Z,96067.28
2022-10-16T02:09:20.746Z,96198.59
2022-10-16T02:11:47.801Z,96155.00
2022-10-16T02:14:14.426Z,96202.94
2022-10-16T02:16:44.354Z,96224.41
2022-10-16T02:19:16.073Z,96194.72
2022-10-16T02:21:52.370Z,96208.59
2022-10-16T02:24:34.962Z,96230.06
2022-10-16T02:27:11.403Z,96228.09
2022-10-16T02:29:45.858Z,96239.16
2022-10-16T02:32:16.043Z,96253.69
2022-10-16T02:34:43.157Z,96206.44
2022-10-16T02:37:11.436Z,96245.81
2022-10-16T02:39:39.206Z,96218.00
2022-10-16T02:42:05.818Z,96212.16
2022-10-16T02:44:32.436Z,96222.63
2022-10-16T02:46:59.076Z,96238.09
2022-10-16T02:49:25.722Z,96228.00
2022-10-16T02:51:52.316Z,96234.06
2022-10-16T02:54:19.062Z,96228.06
2022-10-16T02:56:45.686Z,96225.25
2022-10-16T02:59:12.312Z,96221.41
2022-10-16T03:01:39.050Z,96244.31
2022-10-16T03:04:05.701Z,96228.47
2022-10-16T03:06:32.386Z,96234.91
2022-10-16T03:08:58.979Z,96264.78
2022-10-16T03:11:25.665Z,96192.81
2022-10-16T03:13:52.284Z,96222.88
2022-10-16T03:16:18.865Z,96262.25
2022-10-16T03:18:50.302Z,96206.84
2022-10-16T03:21:17.693Z,96229.53
2022-10-16T03:23:44.312Z,96229.78
2022-10-16T03:26:10.894Z,96202.22
2022-10-16T03:28:37.576Z,96244.75
2022-10-16T03:31:04.232Z,96233.56
2022-10-16T03:33:30.820Z,96265.81
2022-10-16T03:35:57.374Z,96271.31
2022-10-16T03:38:24.057Z,96185.19
2022-10-16T03:40:50.649Z,96256.06
2022-10-16T03:43:17.245Z,96215.56
2022-10-16T03:45:43.849Z,96275.25
2022-10-16T03:48:10.511Z,96190.84
2022-10-16T03:50:37.319Z,96207.69
2022-10-16T03:53:04.687Z,96261.13
2022-10-16T03:55:31.351Z,96254.84
2022-10-16T03:57:57.958Z,96276.44
2022-10-16T04:00:24.523Z,96223.78
2022-10-16T04:02:51.084Z,96257.88
2022-10-16T04:05:17.718Z,96244.31
2022-10-16T04:07:44.334Z,96274.81
2022-10-16T04:10:11.110Z,96246.75
2022-10-16T04:12:37.767Z,96224.06
2022-10-16T04:15:04.473Z,96281.25
2022-10-16T04:17:31.060Z,96246.38
2022-10-16T04:19:57.729Z,96247.50
2022-10-16T04:22:24.389Z,96268.31
2022-10-16T04:24:51.079Z,96297.25
2022-10-16T04:27:17.654Z,96260.66
2022-10-16T04:29:44.259Z,96260.25
2022-10-16T04:32:10.867Z,96299.06
2022-10-16T04:34:39.058Z,96297.84
2022-10-16T04:37:05.609Z,96268.97
2022-10-16T04:39:32.335Z,96284.41
2022-10-16T04:41:58.917Z,96275.31
2022-10-16T04:44:25.502Z,96283.28
2022-10-16T04:46:52.427Z,96242.44
2022-10-16T04:49:19.047Z,96289.78
2022-10-16T04:51:45.625Z,96297.84
2022-10-16T04:54:12.355Z,96284.44
2022-10-16T04:56:47.008Z,96286.00
2022-10-16T04:59:17.985Z,96283.69
2022-10-16T05:01:44.906Z,96313.84
2022-10-16T05:04:12.140Z,96306.94
2022-10-16T05:06:39.620Z,96314.03
2022-10-16T05:09:06.773Z,96314.38
2022-10-16T05:11:33.725Z,96319.09
2022-10-16T05:14:01.011Z,96312.25
2022-10-16T05:16:27.825Z,96349.16
2022-10-16T05:19:00.010Z,96335.53
2022-10-16T05:21:31.135Z,96306.59
2022-10-16T05:23:57.802Z,96330.50
2022-10-16T05:26:24.448Z,96298.63
2022-10-16T05:28:51.408Z,96318.50
2022-10-16T05:31:18.139Z,96342.38
2022-10-16T05:33:45.171Z,96300.25
2022-10-16T05:36:12.007Z,96301.88
2022-10-16T05:38:38.701Z,96311.72
2022-10-16T05:41:06.061Z,96325.25
2022-10-16T05:43:33.321Z,96282.00
2022-10-16T05:46:05.805Z,96331.88
2022-10-16T05:48:33.450Z,96302.47
2022-10-16T05:51:11.444Z,96319.53
2022-10-16T05:53:39.896Z,96330.13
2022-10-16T05:56:08.351Z,96301.28
2022-10-16T05:58:37.381Z,96306.47
2022-10-16T06:01:06.695Z,96275.91
2022-10-16T06:03:34.249Z,96324.97
2022-10-16T06:06:11.533Z,96337.38
2022-10-16T06:08:39.751Z,96338.00
2022-10-16T06:11:08.899Z,96345.06
2022-10-16T06:13:36.135Z,96331.00
2022-10-16T06:16:04.194Z,96321.50
2022-10-16T06:18:31.519Z,96346.94
2022-10-16T06:20:58.157Z,96358.31
2022-10-16T06:23:25.155Z,96369.81
2022-10-16T06:25:52.135Z,96262.38
2022-10-16T06:28:19.538Z,96350.75
2022-10-16T06:30:46.698Z,96379.06
2022-10-16T06:33:13.609Z,96303.56
2022-10-16T06:35:40.316Z,96369.84
2022-10-16T06:38:07.179Z,96368.97
2022-10-16T06:40:33.838Z,96357.84
2022-10-16T06:43:00.440Z,96363.66
2022-10-16T06:45:27.089Z,96362.25
2022-10-16T06:47:53.746Z,96379.03
2022-10-16T06:50:20.371Z,96390.63
2022-10-16T06:52:47.123Z,96310.66
2022-10-16T06:55:13.913Z,96335.25
2022-10-16T06:57:40.517Z,96404.03
2022-10-16T07:00:07.692Z,96388.09
2022-10-16T07:02:34.298Z,96390.59
2022-10-16T07:05:00.924Z,96413.88
2022-10-16T07:07:27.755Z,96428.34
2022-10-16T07:09:54.343Z,96418.84
2022-10-16T07:12:20.976Z,96431.97
2022-10-16T07:14:47.614Z,96462.31
2022-10-16T07:17:14.213Z,96422.66
2022-10-16T07:19:40.853Z,96456.50
2022-10-16T07:22:07.617Z,96409.22
2022-10-16T07:24:34.300Z,96446.53
2022-10-16T07:27:00.914Z,96453.66
2022-10-16T07:29:27.702Z,96428.22
2022-10-16T07:31:54.600Z,96375.59
2022-10-16T07:34:22.812Z,96287.13
2022-10-16T07:36:51.180Z,96443.84
2022-10-16T07:39:18.539Z,96455.09
2022-10-16T07:41:45.320Z,96398.34
2022-10-16T07:44:12.333Z,96454.63
2022-10-16T07:46:39.026Z,96467.56
2022-10-16T07:49:05.760Z,96463.94
2022-10-16T07:51:32.538Z,96393.34
2022-10-16T07:53:59.575Z,96472.44
2022-10-16T07:56:26.280Z,96449.38
2022-10-16T07:58:53.736Z,96490.09
2022-10-16T08:01:21.399Z,96452.16
2022-10-16T08:03:51.052Z,96467.63
2022-10-16T08:06:21.934Z,96468.91
2022-10-16T08:08:51.883Z,96448.81
2022-10-16T08:11:18.595Z,96460.22
2022-10-16T08:13:45.259Z,96514.13
2022-10-16T08:16:12.224Z,96486.94
2022-10-16T08:18:40.741Z,96484.00
2022-10-16T08:21:16.823Z,96424.00
2022-10-16T08:23:45.770Z,96430.59
2022-10-16T08:26:13.398Z,96513.09
2022-10-16T08:28:40.417Z,96522.78
2022-10-16T08:31:13.836Z,96516.69
2022-10-16T08:33:42.663Z,96514.19
2022-10-16T08:36:11.990Z,96516.00
2022-10-16T08:38:39.364Z,96474.66
2022-10-16T08:41:37.636Z,96452.13
2022-10-16T08:44:42.683Z,96520.53
2022-10-16T08:47:21.123Z,96502.88
2022-10-16T08:50:12.734Z,96487.00
2022-10-16T08:52:45.530Z,96497.97
2022-10-16T08:55:51.369Z,96542.88
2022-10-16T08:58:20.419Z,96523.41
2022-10-16T09:00:51.816Z,96489.38
2022-10-16T09:03:42.356Z,96471.78
2022-10-16T09:06:15.082Z,96560.16
2022-10-16T09:08:56.363Z,96560.97
2022-10-16T09:11:51.279Z,96542.06
2022-10-16T09:14:37.491Z,96565.81
2022-10-16T09:17:13.311Z,96571.72
2022-10-16T09:19:47.631Z,96505.03
2022-10-16T09:22:17.092Z,96522.56
2022-10-16T09:24:44.106Z,96586.50
2022-10-16T09:27:15.614Z,96513.16
2022-10-16T09:29:42.304Z,96531.16
2022-10-16T09:32:15.396Z,96567.50
2022-10-16T09:34:50.630Z,96556.03
2022-10-16T09:37:24.212Z,96597.66
2022-10-16T09:39:54.013Z,96560.50
2022-10-16T09:42:24.887Z,96560.91
2022-10-16T09:44:54.581Z,96608.63
2022-10-16T09:47:25.252Z,96472.53
2022-10-16T09:49:58.772Z,96601.63
2022-10-16T09:52:25.929Z,96584.28
2022-10-16T09:54:58.086Z,96511.88
2022-10-16T09:57:25.864Z,96574.28
2022-10-16T09:59:54.920Z,96515.56
2022-10-16T10:02:31.667Z,96532.13
2022-10-16T10:04:58.343Z,96604.53
2022-10-16T10:07:28.768Z,96603.84
2022-10-16T10:09:58.336Z,96608.28
2022-10-16T10:12:31.796Z,96624.06
2022-10-16T10:15:06.395Z,96560.19
2022-10-16T10:17:33.163Z,96623.88
2022-10-16T10:20:02.180Z,96557.53
2022-10-16T10:22:43.786Z,96624.31
2022-10-16T10:25:13.524Z,96627.97
2022-10-16T10:27:46.342Z,96624.94
2022-10-16T10:30:30.437Z,96621.38
2022-10-16T10:33:23.115Z,96624.28
2022-10-16T10:36:02.007Z,96630.91
2022-10-16T10:38:53.784Z,96583.75
2022-10-16T10:41:49.391Z,96594.53
2022-10-16T10:44:44.591Z,96623.25
2022-10-16T10:47:20.361Z,96621.31
2022-10-16T10:50:08.402Z,96620.06
2022-10-16T10:52:46.547Z,96618.28
2022-10-16T10:55:22.527Z,96613.16
2022-10-16T10:58:11.157Z,96613.94
2022-10-16T11:00:49.847Z,96615.78
2022-10-16T11:03:32.343Z,96623.75
2022-10-16T11:06:10.535Z,96624.91
2022-10-16T11:08:44.402Z,96580.72
2022-10-16T11:11:35.875Z,96632.63
2022-10-16T11:14:23.232Z,96601.53
2022-10-16T11:17:06.788Z,96622.44
2022-10-16T11:20:19.065Z,96434.44
2022-10-16T11:22:54.118Z,96623.91
2022-10-16T11:25:33.473Z,96618.94
2022-10-16T11:28:18.676Z,96621.63
2022-10-16T11:31:11.359Z,96607.66
2022-10-16T11:33:43.703Z,96615.31
2022-10-16T11:36:13.150Z,96623.38
2022-10-16T11:38:55.648Z,96625.31
2022-10-16T11:41:28.958Z,96625.91
2022-10-16T11:44:17.180Z,96621.22
2022-10-16T11:46:59.251Z,96630.09
2022-10-16T11:49:38.507Z,96629.34
2022-10-16T11:52:26.100Z,96631.03
2022-10-16T11:55:10.303Z,96631.81
2022-10-16T11:57:44.809Z,96630.38
2022-10-16T12:00:11.455Z,96630.09
2022-10-16T12:02:50.201Z,96638.97
2022-10-16T12:05:35.523Z,96603.94
2022-10-16T12:08:28.846Z,96639.28
2022-10-16T12:11:08.722Z,96609.34
2022-10-16T12:13:41.070Z,96639.81
2022-10-16T12:16:13.926Z,96640.19
2022-10-16T12:18:43.124Z,96642.09
2022-10-16T12:21:11.810Z,96633.09
2022-10-16T12:23:48.438Z,96606.59
2022-10-16T12:26:24.727Z,96592.13
2022-10-16T12:28:52.758Z,96575.88
2022-10-16T12:31:19.637Z,96629.41
2022-10-16T12:34:22.712Z,96614.06
2022-10-16T12:36:49.966Z,96613.88
2022-10-16T12:39:26.147Z,96576.69
2022-10-16T12:42:04.887Z,96653.22
2022-10-16T12:44:37.212Z,96658.25
2022-10-16T12:47:04.173Z,96662.84
2022-10-16T12:49:36.514Z,96589.53
2022-10-16T12:52:04.377Z,96654.38
2022-10-16T12:54:42.182Z,96656.59
2022-10-16T12:57:11.752Z,96656.59
2022-10-16T13:00:15.395Z,96650.13
2022-10-16T13:03:12.653Z,96634.97
2022-10-16T13:05:56.839Z,96620.19
2022-10-16T13:08:32.454Z,96651.84
2022-10-16T13:11:36.283Z,96658.31
2022-10-16T13:14:21.369Z,96667.91
2022-10-16T13:17:21.875Z,96668.03
2022-10-16T13:19:54.606Z,96671.75
2022-10-16T13:22:38.778Z,96682.34
2022-10-16T13:25:19.198Z,96649.44
2022-10-16T13:28:09.952Z,96697.41
2022-10-16T13:30:53.404Z,96688.41
2022-10-16T13:33:41.770Z,96665.31
2022-10-16T13:36:20.920Z,96664.97
2022-10-16T13:38:47.623Z,96690.38
2022-10-16T13:41:18.149Z,96620.88
2022-10-16T13:43:50.500Z,96692.88
2022-10-16T13:46:18.342Z,96680.25
2022-10-16T13:48:45.934Z,96678.97
2022-10-16T13:51:17.605Z,96686.41
2022-10-16T13:53:46.030Z,96679.59
2022-10-16T13:56:15.564Z,96654.03
2022-10-16T13:58:43.015Z,96637.91
2022-10-16T14:01:27.299Z,96537.78
2022-10-16T14:04:06.791Z,96672.06
2022-10-16T14:06:34.527Z,96691.19
2022-10-16T14:09:18.430Z,96692.59
2022-10-16T14:11:55.081Z,96691.81
2022-10-16T14:14:22.359Z,96686.28
2022-10-16T14:16:50.499Z,96658.34
2022-10-16T14:19:22.946Z,96643.19
2022-10-16T14:21:53.845Z,96701.22
2022-10-16T14:24:29.046Z,96539.66
2022-10-16T14:26:57.519Z,96598.81
2022-10-16T14:29:26.281Z,96617.88
2022-10-16T14:32:04.975Z,96716.00
2022-10-16T14:34:37.256Z,96716.84
2022-10-16T14:37:27.451Z,96689.31
2022-10-16T14:39:56.319Z,96695.84
2022-10-16T14:42:26.031Z,96694.34
2022-10-16T14:44:55.630Z,96617.22
2022-10-16T14:47:27.744Z,96721.31
2022-10-16T14:49:57.013Z,96714.13
2022-10-16T14:52:23.805Z,96625.72
2022-10-16T14:54:51.523Z,96705.81
2022-10-16T14:57:21.509Z,96716.41
2022-10-16T14:59:52.148Z,96702.34
2022-10-16T15:02:26.284Z,96724.28
2022-10-16T15:04:53.314Z,96710.88
2022-10-16T15:07:20.522Z,96684.13
2022-10-16T15:09:49.299Z,96719.66
2022-10-16T15:12:17.416Z,96715.66
2022-10-16T15:14:44.481Z,96718.50
2022-10-16T15:17:12.060Z,96715.50
2022-10-16T15:19:38.904Z,96667.88
2022-10-16T15:22:05.878Z,96710.88
2022-10-16T15:24:33.084Z,96688.22
2022-10-16T15:27:00.183Z,96667.47
2022-10-16T15:29:27.227Z,96707.03
2022-10-16T15:31:54.018Z,96612.09
2022-10-16T15:34:20.807Z,96705.47
2022-10-16T15:36:47.926Z,96712.31
2022-10-16T15:39:20.627Z,96719.53
2022-10-16T15:41:52.342Z,96708.00
2022-10-16T15:44:19.307Z,96714.53
2022-10-16T15:46:46.321Z,96708.31
2022-10-16T15:49:13.349Z,96712.88
2022-10-16T15:51:42.229Z,96686.91
2022-10-16T15:54:12.315Z,96667.97
2022-10-16T15:56:38.951Z,96645.53
2022-10-16T15:59:06.182Z,96713.78
2022-10-16T16:01:35.024Z,96669.75
2022-10-16T16:04:07.464Z,96710.91
2022-10-16T16:06:45.716Z,96697.50
2022-10-16T16:09:13.591Z,96690.06
2022-10-16T16:11:40.410Z,96682.78
2022-10-16T16:14:07.989Z,96715.03
2022-10-16T16:16:38.435Z,96707.22
2022-10-16T16:19:11.454Z,96686.38
2022-10-16T16:21:38.822Z,96679.00
2022-10-16T16:24:09.073Z,96639.59
2022-10-16T16:26:38.496Z,96717.88
2022-10-16T16:29:05.421Z,96726.59
2022-10-16T16:31:33.629Z,96712.41
2022-10-16T16:34:00.354Z,96717.09
2022-10-16T16:36:27.042Z,96681.44
2022-10-16T16:38:53.777Z,96726.97
2022-10-16T16:41:26.765Z,96735.44
2022-10-16T16:43:54.538Z,96697.06
2022-10-16T16:46:22.278Z,96689.31
2022-10-16T16:48:51.148Z,96712.75
2022-10-16T16:51:20.529Z,96738.78
2022-10-16T16:53:50.834Z,96719.34
2022-10-16T16:56:18.944Z,96742.41
2022-10-16T16:58:50.905Z,96714.25
2022-10-16T17:01:20.695Z,96760.59
2022-10-16T17:03:50.858Z,96762.38
2022-10-16T17:06:20.598Z,96771.38
2022-10-16T17:08:49.057Z,96743.06
2022-10-16T17:11:18.958Z,96748.97
2022-10-16T17:13:45.897Z,96755.94
2022-10-16T17:16:13.443Z,96666.31
2022-10-16T17:18:40.382Z,96776.28
2022-10-16T17:21:08.730Z,96782.03
2022-10-16T17:23:37.016Z,96786.88
2022-10-16T17:26:09.158Z,96785.00
2022-10-16T17:28:36.037Z,96740.63
2022-10-16T17:31:19.957Z,96785.56
2022-10-16T17:33:47.015Z,96740.53
2022-10-16T17:36:14.748Z,96768.53
2022-10-16T17:38:42.533Z,96716.16
2022-10-16T17:41:19.323Z,96762.00
2022-10-16T17:43:47.212Z,96747.13
2022-10-16T17:46:15.877Z,96801.16
2022-10-16T17:48:45.572Z,96784.09
2022-10-16T17:51:14.592Z,96794.56
2022-10-16T17:53:41.322Z,96794.91
2022-10-16T17:56:13.576Z,96766.38
2022-10-16T17:58:41.345Z,96801.22
2022-10-16T18:01:15.658Z,96793.28
2022-10-16T18:03:42.451Z,96788.38
2022-10-16T18:06:09.269Z,96803.94
2022-10-16T18:08:39.238Z,96806.38
2022-10-16T18:11:06.282Z,96800.19
2022-10-16T18:13:33.367Z,96794.25
2022-10-16T18:16:02.293Z,96817.47
2022-10-16T18:18:29.922Z,96778.28
2022-10-16T18:20:58.530Z,96819.25
2022-10-16T18:23:25.492Z,96744.09
2022-10-16T18:25:52.492Z,96755.09
2022-10-16T18:28:19.867Z,96805.88
2022-10-16T18:30:57.461Z,96796.16
2022-10-16T18:33:24.270Z,96798.66
2022-10-16T18:35:51.502Z,96810.59
2022-10-16T18:38:20.911Z,96793.06
2022-10-16T18:40:48.004Z,96808.44
2022-10-16T18:43:14.667Z,96806.38
2022-10-16T18:45:41.376Z,96745.91
2022-10-16T18:48:08.091Z,96763.31
2022-10-16T18:50:34.990Z,96802.16
2022-10-16T18:53:02.129Z,96827.44
2022-10-16T18:55:30.993Z,96801.09
2022-10-16T18:57:57.905Z,96822.47
2022-10-16T19:00:24.640Z,96821.84
2022-10-16T19:02:51.815Z,96825.97
2022-10-16T19:05:18.466Z,96826.50
2022-10-16T19:07:47.171Z,96753.88
2022-10-16T19:10:14.719Z,96802.25
2022-10-16T19:12:41.808Z,96795.13
2022-10-16T19:15:09.069Z,96803.63
2022-10-16T19:17:37.910Z,96790.31
2022-10-16T19:20:06.600Z,96838.19
2022-10-16T19:22:55.462Z,96807.84
2022-10-16T19:25:24.059Z,96820.41
2022-10-16T19:27:51.985Z,96826.38
2022-10-16T19:30:19.287Z,96819.78
2022-10-16T19:32:46.504Z,96849.09
2022-10-16T19:35:13.159Z,96809.03
2022-10-16T19:37:39.864Z,96827.44
2022-10-16T19:40:07.327Z,96850.13
2022-10-16T19:42:34.086Z,96842.03
2022-10-16T19:45:00.772Z,96795.59
2022-10-16T19:47:27.461Z,96840.22
2022-10-16T19:49:54.563Z,96821.19
2022-10-16T19:52:22.338Z,96851.88
2022-10-16T19:54:49.109Z,96821.16
2022-10-16T19:57:15.819Z,96844.06
2022-10-16T19:59:45.596Z,96850.75
2022-10-16T20:02:12.588Z,96842.91
2022-10-16T20:04:39.282Z,96863.50
2022-10-16T20:07:06.048Z,96881.91
2022-10-16T20:09:34.162Z,96851.13
2022-10-16T20:12:01.908Z,96846.13
2022-10-16T20:14:28.788Z,96848.03
2022-10-16T20:16:55.957Z,96862.00
2022-10-16T20:19:23.338Z,96885.91
2022-10-16T20:21:49.995Z,96884.69
2022-10-16T20:24:16.711Z,96883.38
2022-10-16T20:26:43.476Z,96837.69
2022-10-16T20:29:10.588Z,96881.53
2022-10-16T20:31:37.719Z,96891.19
2022-10-16T20:34:07.291Z,96905.88
2022-10-16T20:36:35.329Z,96873.31
2022-10-16T20:39:02.881Z,96880.09
2022-10-16T20:41:29.700Z,96870.22
2022-10-16T20:43:56.305Z,96912.78
2022-10-16T20:46:25.851Z,96920.75
2022-10-16T20:48:53.218Z,96919.72
2022-10-16T20:51:29.138Z,96881.06
2022-10-16T20:54:06.447Z,96900.47
2022-10-16T20:56:35.574Z,96899.78
2022-10-16T20:59:02.426Z,96867.00
2022-10-16T21:01:30.019Z,96919.44
2022-10-16T21:04:01.835Z,96909.03
2022-10-16T21:06:29.274Z,96824.91
2022-10-16T21:08:55.905Z,96906.78
2022-10-16T21:11:26.106Z,96922.47
2022-10-16T21:13:58.673Z,96919.50
2022-10-16T21:16:26.262Z,96923.59
2022-10-16T21:18:54.742Z,96875.16
2022-10-16T21:21:27.662Z,96857.59
2022-10-16T21:23:56.198Z,96866.84
2022-10-16T21:26:26.207Z,96891.53
2022-10-16T21:28:57.807Z,96935.59
2022-10-16T21:31:24.901Z,96939.59
2022-10-16T21:33:52.807Z,96920.28
2022-10-16T21:36:24.822Z,96920.56
2022-10-16T21:38:52.476Z,96933.28
2022-10-16T21:41:28.944Z,96944.94
2022-10-16T21:43:57.240Z,96887.22
2022-10-16T21:46:26.917Z,96905.63
2022-10-16T21:48:58.024Z,96910.72
2022-10-16T21:51:33.891Z,96903.09
2022-10-16T21:54:02.319Z,96946.09
2022-10-16T21:56:29.249Z,96914.13
2022-10-16T21:58:56.114Z,96928.44
2022-10-16T22:01:24.923Z,96944.28
2022-10-16T22:03:52.492Z,96944.38
2022-10-16T22:08:56.441Z,96928.44
2022-10-16T22:11:25.913Z,96918.53
2022-10-16T22:13:54.237Z,96902.53
2022-10-16T22:16:26.019Z,96951.28
2022-10-16T22:18:54.799Z,96952.34
2022-10-16T22:21:21.978Z,96919.41
2022-10-16T22:23:48.634Z,96868.50
2022-10-16T22:26:15.683Z,96958.19
2022-10-16T22:28:43.174Z,96951.88
2022-10-16T22:31:13.916Z,96958.97
2022-10-16T22:33:41.114Z,96940.47
2022-10-16T22:36:10.422Z,96953.88
2022-10-16T22:38:37.561Z,96951.34
2022-10-16T22:41:09.748Z,96912.88
2022-10-16T22:43:39.087Z,96911.66
2022-10-16T22:46:07.834Z,96949.47
2022-10-16T22:48:35.973Z,96924.91
2022-10-16T22:51:04.862Z,96903.28
2022-10-16T22:53:31.648Z,96939.84
2022-10-16T22:55:58.449Z,96871.78
2022-10-16T22:58:25.408Z,96881.09
2022-10-16T23:00:52.463Z,96867.78
2022-10-16T23:03:19.483Z,96878.50
2022-10-16T23:05:46.266Z,96914.53
2022-10-16T23:08:13.119Z,96945.06
2022-10-16T23:10:45.395Z,96969.03
2022-10-16T23:13:12.656Z,96969.47
2022-10-16T23:15:40.963Z,96950.69
2022-10-16T23:18:08.239Z,96966.09
2022-10-16T23:20:35.306Z,96957.72
2022-10-16T23:23:02.009Z,96914.00
2022-10-16T23:25:28.673Z,96964.25
2022-10-16T23:27:55.600Z,96973.88
2022-10-16T23:30:22.482Z,96980.25
2022-10-16T23:32:49.151Z,96927.09
2022-10-16T23:35:15.983Z,96964.75
2022-10-16T23:37:42.606Z,96952.75
2022-10-16T23:40:09.647Z,96962.25
2022-10-16T23:42:36.313Z,96948.09
2022-10-16T23:45:03.185Z,96899.41
2022-10-16T23:47:30.048Z,96846.84
2022-10-16T23:49:56.886Z,96951.84
2022-10-16T23:52:23.552Z,96910.13
2022-10-16T23:54:50.241Z,96955.09
2022-10-16T23:57:16.984Z,96942.34
2022-10-16T23:59:43.609Z,96944.69
